createdAt,value
2023-12-27T00:01:24.820Z,2.46
2023-12-27T00:03:51.441Z,2.50
2023-12-27T00:06:18.344Z,2.51
2023-12-27T00:08:44.924Z,2.53
2023-12-27T00:11:11.550Z,2.52
2023-12-27T00:13:38.445Z,2.42
2023-12-27T00:16:05.317Z,2.38
2023-12-27T00:18:32.154Z,2.37
2023-12-27T00:20:58.795Z,2.32
2023-12-27T00:23:26.356Z,2.32
2023-12-27T00:25:52.913Z,2.32
2023-12-27T00:28:20.387Z,2.25
2023-12-27T00:30:50.259Z,2.18
2023-12-27T00:33:17.054Z,2.16
2023-12-27T00:35:43.977Z,2.09
2023-12-27T00:38:10.494Z,2.07
2023-12-27T00:40:37.116Z,2.10
2023-12-27T00:43:04.378Z,2.09
2023-12-27T00:45:31.049Z,2.04
2023-12-27T00:47:57.848Z,2.04
2023-12-27T00:50:24.549Z,1.99
2023-12-27T00:52:51.133Z,1.98
2023-12-27T00:55:17.663Z,1.96
2023-12-27T00:57:44.169Z,1.94
2023-12-27T01:00:11.252Z,1.89
2023-12-27T01:02:37.889Z,1.89
2023-12-27T01:05:04.859Z,1.89
2023-12-27T01:07:31.393Z,1.88
2023-12-27T01:09:57.924Z,1.87
2023-12-27T01:12:24.643Z,1.85
2023-12-27T01:14:51.166Z,1.88
2023-12-27T01:17:17.683Z,1.88
2023-12-27T01:19:44.429Z,1.89
2023-12-27T01:22:11.003Z,1.88
2023-12-27T01:24:37.594Z,1.85
2023-12-27T01:27:05.336Z,1.78
2023-12-27T01:29:31.872Z,1.68
2023-12-27T01:31:58.368Z,1.77
2023-12-27T01:34:25.192Z,1.83
2023-12-27T01:36:51.877Z,1.83
2023-12-27T01:39:18.472Z,1.83
2023-12-27T01:41:45.070Z,1.81
2023-12-27T01:44:12.874Z,1.81
2023-12-27T01:46:39.531Z,1.73
2023-12-27T01:49:06.474Z,1.65
2023-12-27T01:51:33.203Z,1.68
2023-12-27T01:54:02.273Z,1.66
2023-12-27T01:56:29.495Z,1.76
2023-12-27T01:58:56.248Z,1.84
2023-12-27T02:01:22.880Z,1.80
2023-12-27T02:03:49.761Z,1.73
2023-12-27T02:06:16.670Z,1.65
2023-12-27T02:08:43.458Z,1.55
2023-12-27T02:11:10.049Z,1.49
2023-12-27T02:13:36.586Z,1.52
2023-12-27T02:16:04.666Z,1.58
2023-12-27T02:18:31.754Z,1.59
2023-12-27T02:20:58.935Z,1.62
2023-12-27T02:23:29.047Z,1.70
2023-12-27T02:25:57.156Z,1.79
2023-12-27T02:28:23.926Z,1.82
2023-12-27T02:30:54.820Z,1.83
2023-12-27T02:33:22.055Z,1.70
2023-12-27T02:35:48.823Z,1.63
2023-12-27T02:38:15.484Z,1.72
2023-12-27T02:40:42.036Z,1.82
2023-12-27T02:43:08.607Z,1.86
2023-12-27T02:45:35.887Z,1.88
2023-12-27T02:48:02.742Z,1.81
2023-12-27T02:50:29.692Z,1.72
2023-12-27T02:52:56.206Z,1.70
2023-12-27T02:55:22.774Z,1.75
2023-12-27T02:57:49.374Z,1.87
2023-12-27T03:00:16.479Z,1.91
2023-12-27T03:02:43.166Z,1.95
2023-12-27T03:05:09.950Z,1.92
2023-12-27T03:07:36.533Z,1.87
2023-12-27T03:10:03.354Z,1.81
2023-12-27T03:12:29.999Z,1.86
2023-12-27T03:14:56.541Z,1.88
2023-12-27T03:17:23.080Z,1.90
2023-12-27T03:19:49.670Z,1.94
2023-12-27T03:22:16.201Z,1.96
2023-12-27T03:24:42.724Z,2.00
2023-12-27T03:27:09.558Z,2.05
2023-12-27T03:29:36.102Z,2.12
2023-12-27T03:32:02.735Z,2.11
2023-12-27T03:34:29.465Z,2.16
2023-12-27T03:36:56.144Z,2.11
2023-12-27T03:39:22.791Z,2.05
2023-12-27T03:41:49.443Z,1.99
2023-12-27T03:44:16.134Z,2.01
2023-12-27T03:46:42.707Z,2.09
2023-12-27T03:49:09.367Z,2.19
2023-12-27T03:51:36.057Z,2.29
2023-12-27T03:54:02.708Z,2.36
2023-12-27T03:56:29.235Z,2.42
2023-12-27T03:58:55.756Z,2.45
2023-12-27T04:01:22.624Z,2.50
2023-12-27T04:03:50.267Z,2.50
2023-12-27T04:06:20.733Z,2.50
2023-12-27T04:08:48.455Z,2.50
2023-12-27T04:11:15.077Z,2.42
2023-12-27T04:13:41.806Z,2.32
2023-12-27T04:16:08.727Z,2.30
2023-12-27T04:18:35.647Z,2.39
2023-12-27T04:21:02.285Z,2.44
2023-12-27T04:23:28.942Z,2.46
2023-12-27T04:25:56.390Z,2.51
2023-12-27T04:28:23.471Z,2.55
2023-12-27T04:30:50.075Z,2.60
2023-12-27T04:33:16.922Z,2.66
2023-12-27T04:35:44.057Z,2.70
2023-12-27T04:38:14.758Z,2.78
2023-12-27T04:40:47.950Z,2.85
2023-12-27T04:43:14.797Z,2.92
2023-12-27T04:45:41.585Z,2.95
2023-12-27T04:48:08.662Z,3.00
2023-12-27T04:50:35.537Z,3.08
2023-12-27T04:53:02.290Z,3.13
2023-12-27T04:55:29.005Z,3.26
2023-12-27T04:57:55.990Z,3.40
2023-12-27T05:00:24.380Z,3.52
2023-12-27T05:02:51.015Z,3.65
2023-12-27T05:05:17.673Z,3.72
2023-12-27T05:07:44.364Z,3.75
2023-12-27T05:10:11.058Z,3.85
2023-12-27T05:12:37.748Z,3.88
2023-12-27T05:15:04.861Z,3.89
2023-12-27T05:17:31.409Z,3.95
2023-12-27T05:19:57.931Z,4.00
2023-12-27T05:22:24.546Z,4.01
2023-12-27T05:24:51.114Z,4.04
2023-12-27T05:27:17.756Z,4.12
2023-12-27T05:29:44.463Z,4.16
2023-12-27T05:32:12.171Z,4.19
2023-12-27T05:34:38.928Z,4.21
2023-12-27T05:37:05.517Z,4.23
2023-12-27T05:39:32.106Z,4.27
2023-12-27T05:41:58.749Z,4.28
2023-12-27T05:44:25.328Z,4.26
2023-12-27T05:46:51.840Z,4.29
2023-12-27T05:49:18.479Z,4.34
2023-12-27T05:51:45.051Z,4.35
2023-12-27T05:54:15.042Z,4.40
2023-12-27T05:56:41.992Z,4.46
2023-12-27T05:59:08.584Z,4.47
2023-12-27T06:01:35.140Z,4.51
2023-12-27T06:04:04.380Z,4.50
2023-12-27T06:06:31.692Z,4.53
2023-12-27T06:08:58.379Z,4.56
2023-12-27T06:11:25.026Z,4.57
2023-12-27T06:13:51.589Z,4.58
2023-12-27T06:16:18.166Z,4.59
2023-12-27T06:18:45.279Z,4.62
2023-12-27T06:21:12.156Z,4.64
2023-12-27T06:23:38.795Z,4.67
2023-12-27T06:26:07.047Z,4.69
2023-12-27T06:28:33.802Z,4.74
2023-12-27T06:31:00.533Z,4.79
2023-12-27T06:33:27.208Z,4.82
2023-12-27T06:35:53.845Z,4.85
2023-12-27T06:38:20.382Z,4.85
2023-12-27T06:40:46.968Z,4.86
2023-12-27T06:43:13.523Z,4.88
2023-12-27T06:45:40.077Z,4.91
2023-12-27T06:48:07.334Z,4.96
2023-12-27T06:50:33.943Z,4.99
2023-12-27T06:53:00.514Z,5.01
2023-12-27T06:55:27.038Z,5.04
2023-12-27T06:57:53.758Z,5.04
2023-12-27T07:00:20.580Z,5.07
2023-12-27T07:02:47.293Z,5.10
2023-12-27T07:05:14.123Z,5.15
2023-12-27T07:07:40.754Z,5.18
2023-12-27T07:10:10.529Z,5.20
2023-12-27T07:12:39.688Z,5.20
2023-12-27T07:15:11.355Z,5.23
2023-12-27T07:17:37.952Z,5.26
2023-12-27T07:20:04.978Z,5.28
2023-12-27T07:22:31.907Z,5.30
2023-12-27T07:24:59.505Z,5.33
2023-12-27T07:27:26.075Z,5.34
2023-12-27T07:29:54.942Z,5.38
2023-12-27T07:32:23.048Z,5.41
2023-12-27T07:34:49.684Z,5.43
2023-12-27T07:37:16.251Z,5.46
2023-12-27T07:39:42.971Z,5.49
2023-12-27T07:42:09.614Z,5.47
2023-12-27T07:44:36.302Z,5.49
2023-12-27T07:47:05.436Z,5.52
2023-12-27T07:49:32.226Z,5.52
2023-12-27T07:51:58.976Z,5.52
2023-12-27T07:54:25.558Z,5.55
2023-12-27T07:56:52.454Z,5.55
2023-12-27T07:59:19.073Z,5.56
2023-12-27T08:01:47.053Z,5.58
2023-12-27T08:04:13.977Z,5.57
2023-12-27T08:06:40.776Z,5.58
2023-12-27T08:09:07.431Z,5.57
2023-12-27T08:11:34.036Z,5.58
2023-12-27T08:14:00.682Z,5.59
2023-12-27T08:16:27.349Z,5.60
2023-12-27T08:18:54.785Z,5.62
2023-12-27T08:21:21.562Z,5.61
2023-12-27T08:23:48.178Z,5.63
2023-12-27T08:26:15.449Z,5.62
2023-12-27T08:28:42.145Z,5.63
2023-12-27T08:31:08.934Z,5.64
2023-12-27T08:33:38.945Z,5.65
2023-12-27T08:36:06.139Z,5.64
2023-12-27T08:38:33.794Z,5.65
2023-12-27T08:41:00.621Z,5.68
2023-12-27T08:43:30.743Z,5.68
2023-12-27T08:45:57.735Z,5.70
2023-12-27T08:48:24.695Z,5.73
2023-12-27T08:50:52.564Z,5.76
2023-12-27T08:53:19.350Z,5.77
2023-12-27T08:55:45.984Z,5.78
2023-12-27T08:58:13.732Z,5.80
2023-12-27T09:00:42.103Z,5.82
2023-12-27T09:03:08.808Z,5.84
2023-12-27T09:05:35.642Z,5.87
2023-12-27T09:08:02.222Z,5.89
2023-12-27T09:10:29.279Z,5.92
2023-12-27T09:12:56.665Z,5.96
2023-12-27T09:15:26.531Z,5.98
2023-12-27T09:17:53.471Z,5.98
2023-12-27T09:20:20.020Z,6.02
2023-12-27T09:22:46.699Z,6.07
2023-12-27T09:25:16.372Z,6.11
2023-12-27T09:27:43.105Z,6.14
2023-12-27T09:30:10.336Z,6.16
2023-12-27T09:32:37.613Z,6.17
2023-12-27T09:35:04.702Z,6.21
2023-12-27T09:37:32.006Z,6.22
2023-12-27T09:39:58.719Z,6.24
2023-12-27T09:42:25.242Z,6.28
2023-12-27T09:44:53.222Z,6.31
2023-12-27T09:47:21.616Z,6.33
2023-12-27T09:49:48.214Z,6.37
2023-12-27T09:52:15.800Z,6.39
2023-12-27T09:54:42.670Z,6.45
2023-12-27T09:57:09.472Z,6.50
2023-12-27T09:59:43.607Z,6.53
2023-12-27T10:02:17.521Z,6.53
2023-12-27T10:04:50.256Z,6.61
2023-12-27T10:07:18.509Z,6.67
2023-12-27T10:09:47.418Z,6.73
2023-12-27T10:12:15.732Z,6.82
2023-12-27T10:14:43.637Z,6.90
2023-12-27T10:17:10.274Z,7.00
2023-12-27T10:19:37.949Z,7.08
2023-12-27T10:22:04.676Z,7.11
2023-12-27T10:24:31.277Z,7.18
2023-12-27T10:26:59.249Z,7.19
2023-12-27T10:29:25.954Z,7.20
2023-12-27T10:31:52.597Z,7.28
2023-12-27T10:34:22.075Z,7.32
2023-12-27T10:36:51.231Z,7.33
2023-12-27T10:39:19.347Z,7.33
2023-12-27T10:41:46.371Z,7.38
2023-12-27T10:44:18.165Z,7.39
2023-12-27T10:46:45.637Z,7.43
2023-12-27T10:49:15.599Z,7.42
2023-12-27T10:51:42.741Z,7.47
2023-12-27T10:54:12.113Z,7.47
2023-12-27T10:56:40.154Z,7.50
2023-12-27T10:59:10.578Z,7.56
2023-12-27T11:01:40.267Z,7.58
2023-12-27T11:04:10.592Z,7.58
2023-12-27T11:06:40.646Z,7.55
2023-12-27T11:09:09.167Z,7.58
2023-12-27T11:11:39.957Z,7.59
2023-12-27T11:14:10.605Z,7.62
2023-12-27T11:16:40.845Z,7.62
2023-12-27T11:19:09.790Z,7.63
2023-12-27T11:21:38.075Z,7.65
2023-12-27T11:24:06.313Z,7.63
2023-12-27T11:26:38.052Z,7.67
2023-12-27T11:29:12.016Z,7.69
2023-12-27T11:31:40.760Z,7.69
2023-12-27T11:34:07.794Z,7.69
2023-12-27T11:36:35.772Z,7.73
2023-12-27T11:39:17.252Z,7.78
2023-12-27T11:41:43.786Z,7.84
2023-12-27T11:44:10.340Z,7.87
2023-12-27T11:46:36.937Z,7.89
2023-12-27T11:49:03.730Z,7.89
2023-12-27T11:51:38.694Z,7.92
2023-12-27T11:54:09.400Z,7.94
2023-12-27T11:56:40.014Z,7.99
2023-12-27T11:59:11.335Z,8.06
2023-12-27T12:01:40.303Z,8.12
2023-12-27T12:04:21.292Z,8.22
2023-12-27T12:07:10.136Z,8.25
2023-12-27T12:09:40.676Z,8.28
2023-12-27T12:12:23.605Z,8.30
2023-12-27T12:14:57.160Z,8.34
2023-12-27T12:17:25.638Z,8.41
2023-12-27T12:19:52.899Z,8.46
2023-12-27T12:22:19.768Z,8.46
2023-12-27T12:24:46.720Z,8.47
2023-12-27T12:27:17.609Z,8.48
2023-12-27T12:29:45.455Z,8.53
2023-12-27T12:32:16.265Z,8.56
2023-12-27T12:34:43.745Z,8.58
2023-12-27T12:37:11.284Z,8.59
2023-12-27T12:39:38.177Z,8.61
2023-12-27T12:42:05.107Z,8.60
2023-12-27T12:44:33.389Z,8.59
2023-12-27T12:47:01.332Z,8.63
2023-12-27T12:49:30.260Z,8.67
2023-12-27T12:52:08.031Z,8.69
2023-12-27T12:54:34.808Z,8.68
2023-12-27T12:57:02.019Z,8.71
2023-12-27T12:59:30.929Z,8.70
2023-12-27T13:01:57.759Z,8.73
2023-12-27T13:04:25.437Z,8.74
2023-12-27T13:07:00.397Z,8.76
2023-12-27T13:09:27.104Z,8.76
2023-12-27T13:11:53.875Z,8.78
2023-12-27T13:14:21.581Z,8.77
2023-12-27T13:16:48.200Z,8.77
2023-12-27T13:19:18.282Z,8.79
2023-12-27T13:21:45.420Z,8.78
2023-12-27T13:24:12.153Z,8.81
2023-12-27T13:26:38.878Z,8.79
2023-12-27T13:29:05.457Z,8.81
2023-12-27T13:31:33.387Z,8.81
2023-12-27T13:34:00.274Z,8.85
2023-12-27T13:36:27.673Z,8.86
2023-12-27T13:38:54.226Z,8.84
2023-12-27T13:41:20.864Z,8.84
2023-12-27T13:43:47.378Z,8.81
2023-12-27T13:46:14.043Z,8.82
2023-12-27T13:48:41.235Z,8.81
2023-12-27T13:51:07.952Z,8.80
2023-12-27T13:53:35.544Z,8.80
2023-12-27T13:56:02.767Z,8.79
2023-12-27T13:58:30.288Z,8.80
2023-12-27T14:00:57.180Z,8.78
2023-12-27T14:03:23.938Z,8.77
2023-12-27T14:05:50.676Z,8.78
2023-12-27T14:08:17.184Z,8.78
2023-12-27T14:10:43.713Z,8.74
2023-12-27T14:13:10.601Z,8.73
2023-12-27T14:15:37.346Z,8.71
2023-12-27T14:18:05.750Z,8.73
2023-12-27T14:20:32.843Z,8.72
2023-12-27T14:22:59.389Z,8.70
2023-12-27T14:25:25.880Z,8.67
2023-12-27T14:27:53.809Z,8.67
2023-12-27T14:30:20.415Z,8.64
2023-12-27T14:32:47.101Z,8.63
2023-12-27T14:35:17.268Z,8.61
2023-12-27T14:37:44.799Z,8.61
2023-12-27T14:40:12.052Z,8.59
2023-12-27T14:42:38.828Z,8.57
2023-12-27T14:45:05.932Z,8.55
2023-12-27T14:47:32.538Z,8.53
2023-12-27T14:49:59.131Z,8.55
2023-12-27T14:52:25.675Z,8.52
2023-12-27T14:54:52.429Z,8.52
2023-12-27T14:57:23.404Z,8.51
2023-12-27T14:59:52.111Z,8.53
2023-12-27T15:02:19.609Z,8.54
2023-12-27T15:04:46.284Z,8.55
2023-12-27T15:07:13.094Z,8.52
2023-12-27T15:09:39.808Z,8.49
2023-12-27T15:12:06.858Z,8.50
2023-12-27T15:14:39.087Z,8.51
2023-12-27T15:17:05.758Z,8.50
2023-12-27T15:19:32.435Z,8.51
2023-12-27T15:21:59.135Z,8.52
2023-12-27T15:24:25.760Z,8.53
2023-12-27T15:26:52.389Z,8.52
2023-12-27T15:29:19.478Z,8.51
2023-12-27T15:31:46.136Z,8.50
2023-12-27T15:34:15.933Z,8.50
2023-12-27T15:36:42.565Z,8.49
2023-12-27T15:39:09.811Z,8.47
2023-12-27T15:41:36.911Z,8.46
2023-12-27T15:44:05.137Z,8.48
2023-12-27T15:46:31.961Z,8.48
2023-12-27T15:48:59.493Z,8.49
2023-12-27T15:51:36.798Z,8.49
2023-12-27T15:54:05.974Z,8.48
2023-12-27T15:56:39.950Z,8.44
2023-12-27T15:59:07.038Z,8.41
2023-12-27T16:01:38.664Z,8.40
2023-12-27T16:04:08.570Z,8.39
2023-12-27T16:06:38.377Z,8.42
2023-12-27T16:09:05.729Z,8.40
2023-12-27T16:11:32.856Z,8.39
2023-12-27T16:14:00.302Z,8.38
2023-12-27T16:16:27.136Z,8.36
2023-12-27T16:18:54.058Z,8.36
2023-12-27T16:21:21.173Z,8.38
2023-12-27T16:23:48.035Z,8.36
2023-12-27T16:26:17.085Z,8.33
2023-12-27T16:28:45.763Z,8.28
2023-12-27T16:31:12.927Z,8.26
2023-12-27T16:33:39.894Z,8.26
2023-12-27T16:36:07.029Z,8.26
2023-12-27T16:38:33.676Z,8.28
2023-12-27T16:41:04.264Z,8.27
2023-12-27T16:43:34.304Z,8.26
2023-12-27T16:46:04.907Z,8.23
2023-12-27T16:48:32.634Z,8.17
2023-12-27T16:50:59.831Z,8.17
2023-12-27T16:53:26.484Z,8.14
2023-12-27T16:55:53.461Z,8.11
2023-12-27T16:58:21.101Z,8.08
2023-12-27T17:00:48.254Z,8.07
2023-12-27T17:03:15.379Z,8.05
2023-12-27T17:05:43.845Z,8.03
2023-12-27T17:08:10.861Z,8.05
2023-12-27T17:10:39.361Z,8.00
2023-12-27T17:13:06.505Z,8.00
2023-12-27T17:15:33.897Z,8.00
2023-12-27T17:18:01.489Z,7.96
2023-12-27T17:20:28.525Z,7.96
2023-12-27T17:22:55.398Z,7.96
2023-12-27T17:25:25.243Z,7.98
2023-12-27T17:27:51.884Z,7.99
2023-12-27T17:30:18.470Z,7.97
2023-12-27T17:32:45.396Z,7.95
2023-12-27T17:35:12.202Z,7.93
2023-12-27T17:37:40.272Z,7.92
2023-12-27T17:40:09.265Z,7.90
2023-12-27T17:42:37.851Z,7.88
2023-12-27T17:45:06.252Z,7.84
2023-12-27T17:47:33.715Z,7.84
2023-12-27T17:50:02.080Z,7.83
2023-12-27T17:52:31.168Z,7.83
2023-12-27T17:54:59.153Z,7.81
2023-12-27T17:57:25.894Z,7.79
2023-12-27T17:59:52.865Z,7.82
2023-12-27T18:02:20.377Z,7.83
2023-12-27T18:04:48.854Z,7.84
2023-12-27T18:07:15.911Z,7.86
2023-12-27T18:09:46.294Z,7.87
2023-12-27T18:12:15.353Z,7.91
2023-12-27T18:14:44.145Z,7.90
2023-12-27T18:17:13.084Z,7.88
2023-12-27T18:19:41.299Z,7.93
2023-12-27T18:22:09.222Z,7.92
2023-12-27T18:24:40.646Z,7.92
2023-12-27T18:27:07.743Z,7.94
2023-12-27T18:29:43.824Z,7.92
2023-12-27T18:32:10.565Z,7.87
2023-12-27T18:34:41.305Z,7.88
2023-12-27T18:37:08.437Z,7.87
2023-12-27T18:39:37.458Z,7.85
2023-12-27T18:42:04.790Z,7.86
2023-12-27T18:44:33.085Z,7.85
2023-12-27T18:46:59.789Z,7.84
2023-12-27T18:49:26.833Z,7.82
2023-12-27T18:51:53.702Z,7.84
2023-12-27T18:54:20.273Z,7.88
2023-12-27T18:56:47.788Z,7.89
2023-12-27T18:59:14.455Z,7.90
2023-12-27T19:01:41.636Z,7.90
2023-12-27T19:04:08.378Z,7.92
2023-12-27T19:06:35.082Z,7.94
2023-12-27T19:09:01.832Z,7.95
2023-12-27T19:11:30.218Z,8.05
2023-12-27T19:13:58.071Z,8.12
2023-12-27T19:16:27.343Z,8.20
2023-12-27T19:18:54.538Z,8.23
2023-12-27T19:21:21.933Z,8.28
2023-12-27T19:23:49.179Z,8.35
2023-12-27T19:26:17.472Z,8.42
2023-12-27T19:28:45.143Z,8.47
2023-12-27T19:31:11.817Z,8.49
2023-12-27T19:33:39.953Z,8.48
2023-12-27T19:36:07.745Z,8.47
2023-12-27T19:38:36.170Z,8.48
2023-12-27T19:41:04.022Z,8.47
2023-12-27T19:43:30.638Z,8.52
2023-12-27T19:45:57.572Z,8.56
2023-12-27T19:48:28.403Z,8.60
2023-12-27T19:50:56.050Z,8.60
2023-12-27T19:53:23.950Z,8.64
2023-12-27T19:55:51.272Z,8.66
2023-12-27T19:58:19.309Z,8.66
2023-12-27T20:00:47.279Z,8.72
2023-12-27T20:03:14.718Z,8.75
2023-12-27T20:05:41.418Z,8.78
2023-12-27T20:08:08.366Z,8.80
2023-12-27T20:10:35.114Z,8.69
2023-12-27T20:13:05.681Z,8.56
2023-12-27T20:15:45.475Z,8.47
2023-12-27T20:18:16.386Z,8.40
2023-12-27T20:20:43.342Z,8.38
2023-12-27T20:23:11.653Z,8.34
2023-12-27T20:25:39.233Z,8.30
2023-12-27T20:28:08.365Z,8.27
2023-12-27T20:30:36.319Z,8.24
2023-12-27T20:33:03.465Z,8.22
2023-12-27T20:35:30.316Z,8.19
2023-12-27T20:37:57.046Z,8.24
2023-12-27T20:40:24.152Z,8.28
2023-12-27T20:42:52.369Z,8.31
2023-12-27T20:45:20.248Z,8.32
2023-12-27T20:47:47.772Z,8.33
2023-12-27T20:50:14.653Z,8.36
2023-12-27T20:52:41.312Z,8.38
2023-12-27T20:55:09.608Z,8.46
2023-12-27T20:57:36.248Z,8.48
2023-12-27T21:00:03.383Z,8.49
2023-12-27T21:02:31.045Z,8.56
2023-12-27T21:04:58.088Z,8.61
2023-12-27T21:07:25.328Z,8.58
2023-12-27T21:09:52.106Z,8.62
2023-12-27T21:12:18.879Z,8.67
2023-12-27T21:14:45.653Z,8.69
2023-12-27T21:17:14.108Z,8.68
2023-12-27T21:19:42.225Z,8.76
2023-12-27T21:22:09.306Z,8.73
2023-12-27T21:24:36.485Z,8.70
2023-12-27T21:27:03.224Z,8.69
2023-12-27T21:29:29.889Z,8.67
2023-12-27T21:31:56.569Z,8.64
2023-12-27T21:34:23.307Z,8.62
2023-12-27T21:36:50.036Z,8.62
2023-12-27T21:39:16.952Z,8.65
2023-12-27T21:41:44.572Z,8.65
2023-12-27T21:44:11.765Z,8.63
2023-12-27T21:46:39.158Z,8.61
2023-12-27T21:49:06.095Z,8.59
2023-12-27T21:51:33.378Z,8.59
2023-12-27T21:54:00.308Z,8.58
2023-12-27T21:56:29.042Z,8.62
2023-12-27T21:58:58.653Z,8.62
2023-12-27T22:01:25.575Z,8.67
2023-12-27T22:03:52.953Z,8.71
2023-12-27T22:06:20.239Z,8.73
2023-12-27T22:08:47.524Z,8.71
2023-12-27T22:11:14.865Z,8.69
2023-12-27T22:13:43.592Z,8.68
2023-12-27T22:16:16.770Z,8.71
2023-12-27T22:18:45.641Z,8.74
2023-12-27T22:21:17.499Z,8.72
2023-12-27T22:23:45.147Z,8.70
2023-12-27T22:26:13.773Z,8.74
2023-12-27T22:28:40.506Z,8.74
2023-12-27T22:31:07.349Z,8.73
2023-12-27T22:33:34.198Z,8.76
2023-12-27T22:36:00.960Z,8.77
2023-12-27T22:38:28.089Z,8.83
2023-12-27T22:40:54.841Z,8.85
2023-12-27T22:43:21.404Z,8.93
2023-12-27T22:45:48.098Z,8.94
2023-12-27T22:48:14.925Z,8.98
2023-12-27T22:50:41.631Z,8.98
2023-12-27T22:53:08.823Z,9.01
2023-12-27T22:55:35.834Z,9.03
2023-12-27T22:58:02.506Z,9.09
2023-12-27T23:00:29.191Z,9.11
2023-12-27T23:02:55.782Z,9.14
2023-12-27T23:05:23.775Z,9.19
2023-12-27T23:07:50.781Z,9.20
2023-12-27T23:10:17.365Z,9.23
2023-12-27T23:12:44.379Z,9.23
2023-12-27T23:15:11.386Z,9.24
2023-12-27T23:17:38.883Z,9.23
2023-12-27T23:20:06.210Z,9.24
2023-12-27T23:22:33.814Z,9.22
2023-12-27T23:25:00.519Z,9.23
2023-12-27T23:27:27.464Z,9.23
2023-12-27T23:29:54.428Z,9.30
2023-12-27T23:32:21.200Z,9.32
2023-12-27T23:34:48.124Z,9.36
2023-12-27T23:37:15.361Z,9.42
2023-12-27T23:39:43.441Z,9.41
2023-12-27T23:42:10.672Z,9.39
2023-12-27T23:44:37.718Z,9.40
2023-12-27T23:47:04.779Z,9.47
2023-12-27T23:49:31.751Z,9.54
2023-12-27T23:52:01.922Z,9.60
2023-12-27T23:54:29.041Z,9.67
2023-12-27T23:56:55.819Z,9.65
2023-12-27T23:59:22.591Z,9.66
